sensor_id;sensor_type;location;lat;lon;timestamp;pressure;altitude;pressure_sealevel;temperature;humidity
59650;BME280;46162;57.568;25.814;2023-03-29T00:00:34;100385.00;;;-2.84;100.00
59650;BME280;46162;57.568;25.814;2023-03-29T00:03:02;100389.66;;;-2.89;100.00
59650;BME280;46162;57.568;25.814;2023-03-29T00:05:31;100392.72;;;-2.79;100.00
59650;BME280;46162;57.568;25.814;2023-03-29T00:08:01;100399.22;;;-2.86;100.00
59650;BME280;46162;57.568;25.814;2023-03-29T00:10:31;100394.94;;;-2.89;100.00
59650;BME280;46162;57.568;25.814;2023-03-29T00:12:59;100390.56;;;-2.90;100.00
59650;BME280;46162;57.568;25.814;2023-03-29T00:15:28;100405.34;;;-2.86;100.00
59650;BME280;46162;57.568;25.814;2023-03-29T00:17:58;100400.28;;;-2.90;100.00
59650;BME280;46162;57.568;25.814;2023-03-29T00:20:27;100407.13;;;-2.86;100.00
59650;BME280;46162;57.568;25.814;2023-03-29T00:22:55;100406.13;;;-2.84;100.00
59650;BME280;46162;57.568;25.814;2023-03-29T00:25:24;100399.84;;;-2.81;100.00
59650;BME280;46162;57.568;25.814;2023-03-29T00:27:52;100399.00;;;-2.82;100.00
59650;BME280;46162;57.568;25.814;2023-03-29T00:30:21;100404.19;;;-2.80;100.00
59650;BME280;46162;57.568;25.814;2023-03-29T00:32:52;100400.41;;;-2.74;100.00
59650;BME280;46162;57.568;25.814;2023-03-29T00:35:21;100398.41;;;-2.69;100.00
59650;BME280;46162;57.568;25.814;2023-03-29T00:37:50;100399.25;;;-2.69;100.00
59650;BME280;46162;57.568;25.814;2023-03-29T00:40:18;100404.59;;;-2.70;100.00
59650;BME280;46162;57.568;25.814;2023-03-29T00:42:47;100407.09;;;-2.67;100.00
59650;BME280;46162;57.568;25.814;2023-03-29T00:45:16;100409.72;;;-2.67;100.00
59650;BME280;46162;57.568;25.814;2023-03-29T00:47:46;100403.53;;;-2.66;100.00
59650;BME280;46162;57.568;25.814;2023-03-29T00:50:16;100407.19;;;-2.69;100.00
59650;BME280;46162;57.568;25.814;2023-03-29T00:52:51;100411.63;;;-2.69;100.00
59650;BME280;46162;57.568;25.814;2023-03-29T00:55:22;100424.84;;;-2.69;100.00
59650;BME280;46162;57.568;25.814;2023-03-29T00:57:51;100420.47;;;-2.70;100.00
59650;BME280;46162;57.568;25.814;2023-03-29T01:00:22;100431.88;;;-2.70;100.00
59650;BME280;46162;57.568;25.814;2023-03-29T01:02:53;100422.94;;;-2.67;100.00
59650;BME280;46162;57.568;25.814;2023-03-29T01:05:26;100424.84;;;-2.69;100.00
59650;BME280;46162;57.568;25.814;2023-03-29T01:07:59;100430.25;;;-2.72;100.00
59650;BME280;46162;57.568;25.814;2023-03-29T01:10:31;100431.88;;;-2.70;100.00
59650;BME280;46162;57.568;25.814;2023-03-29T01:13:03;100438.25;;;-2.74;100.00
59650;BME280;46162;57.568;25.814;2023-03-29T01:15:33;100427.75;;;-2.75;100.00
59650;BME280;46162;57.568;25.814;2023-03-29T01:18:01;100427.75;;;-2.75;100.00
59650;BME280;46162;57.568;25.814;2023-03-29T01:20:34;100427.13;;;-2.81;100.00
59650;BME280;46162;57.568;25.814;2023-03-29T01:23:16;100427.97;;;-2.80;100.00
59650;BME280;46162;57.568;25.814;2023-03-29T01:25:54;100427.13;;;-2.81;100.00
59650;BME280;46162;57.568;25.814;2023-03-29T01:28:28;100426.47;;;-2.86;100.00
59650;BME280;46162;57.568;25.814;2023-03-29T01:30:59;100428.97;;;-2.83;100.00
59650;BME280;46162;57.568;25.814;2023-03-29T01:33:34;100428.28;;;-2.86;100.00
59650;BME280;46162;57.568;25.814;2023-03-29T01:36:05;100427.63;;;-2.91;100.00
59650;BME280;46162;57.568;25.814;2023-03-29T01:38:38;100426.84;;;-2.93;100.00
59650;BME280;46162;57.568;25.814;2023-03-29T01:41:09;100430.34;;;-2.93;100.00
59650;BME280;46162;57.568;25.814;2023-03-29T01:43:40;100424.41;;;-2.98;100.00
59650;BME280;46162;57.568;25.814;2023-03-29T01:46:10;100434.19;;;-3.00;100.00
59650;BME280;46162;57.568;25.814;2023-03-29T01:48:43;100426.22;;;-2.98;100.00
59650;BME280;46162;57.568;25.814;2023-03-29T01:51:14;100430.56;;;-2.97;100.00
59650;BME280;46162;57.568;25.814;2023-03-29T01:53:44;100427.91;;;-2.97;100.00
59650;BME280;46162;57.568;25.814;2023-03-29T01:56:15;100430.41;;;-2.94;100.00
59650;BME280;46162;57.568;25.814;2023-03-29T01:58:49;100435.13;;;-3.01;100.00
59650;BME280;46162;57.568;25.814;2023-03-29T02:01:21;100437.69;;;-2.99;100.00
59650;BME280;46162;57.568;25.814;2023-03-29T02:03:53;100428.22;;;-3.04;100.00
59650;BME280;46162;57.568;25.814;2023-03-29T02:06:23;100432.34;;;-2.98;100.00
59650;BME280;46162;57.568;25.814;2023-03-29T02:08:54;100432.28;;;-2.96;100.00
59650;BME280;46162;57.568;25.814;2023-03-29T02:11:22;100431.28;;;-2.94;100.00
59650;BME280;46162;57.568;25.814;2023-03-29T02:13:54;100433.94;;;-2.94;100.00
59650;BME280;46162;57.568;25.814;2023-03-29T02:16:22;100440.13;;;-2.95;100.00
59650;BME280;46162;57.568;25.814;2023-03-29T02:18:50;100439.28;;;-2.95;100.00
59650;BME280;46162;57.568;25.814;2023-03-29T02:21:23;100444.59;;;-2.97;100.00
59650;BME280;46162;57.568;25.814;2023-03-29T02:23:52;100439.41;;;-2.98;100.00
59650;BME280;46162;57.568;25.814;2023-03-29T02:26:22;100449.19;;;-3.00;100.00
59650;BME280;46162;57.568;25.814;2023-03-29T02:28:52;100450.91;;;-2.99;100.00
59650;BME280;46162;57.568;25.814;2023-03-29T02:31:22;100456.91;;;-2.96;100.00
59650;BME280;46162;57.568;25.814;2023-03-29T02:33:53;100448.97;;;-2.96;100.00
59650;BME280;46162;57.568;25.814;2023-03-29T02:36:26;100453.41;;;-2.96;100.00
59650;BME280;46162;57.568;25.814;2023-03-29T02:38:57;100450.03;;;-3.00;100.00
59650;BME280;46162;57.568;25.814;2023-03-29T02:41:27;100447.25;;;-2.97;100.00
59650;BME280;46162;57.568;25.814;2023-03-29T02:43:58;100444.75;;;-3.00;100.00
59650;BME280;46162;57.568;25.814;2023-03-29T02:46:29;100435.13;;;-3.01;100.00
59650;BME280;46162;57.568;25.814;2023-03-29T02:48:57;100447.63;;;-3.05;100.00
59650;BME280;46162;57.568;25.814;2023-03-29T02:51:27;100449.47;;;-3.07;100.00
59650;BME280;46162;57.568;25.814;2023-03-29T02:53:57;100449.41;;;-3.05;100.00
59650;BME280;46162;57.568;25.814;2023-03-29T02:56:29;100455.69;;;-3.08;100.00
59650;BME280;46162;57.568;25.814;2023-03-29T02:58:57;100456.69;;;-3.10;100.00
59650;BME280;46162;57.568;25.814;2023-03-29T03:01:25;100461.03;;;-3.09;100.00
59650;BME280;46162;57.568;25.814;2023-03-29T03:03:56;100467.09;;;-3.07;100.00
59650;BME280;46162;57.568;25.814;2023-03-29T03:06:25;100463.56;;;-3.06;100.00
59650;BME280;46162;57.568;25.814;2023-03-29T03:08:55;100464.41;;;-3.06;100.00
59650;BME280;46162;57.568;25.814;2023-03-29T03:11:24;100460.91;;;-3.06;100.00
59650;BME280;46162;57.568;25.814;2023-03-29T03:13:53;100463.47;;;-3.05;100.00
59650;BME280;46162;57.568;25.814;2023-03-29T03:16:21;100477.53;;;-3.04;100.00
59650;BME280;46162;57.568;25.814;2023-03-29T03:18:50;100473.81;;;-3.00;100.00
59650;BME280;46162;57.568;25.814;2023-03-29T03:21:22;100477.25;;;-2.98;100.00
59650;BME280;46162;57.568;25.814;2023-03-29T03:23:51;100475.53;;;-2.99;100.00
59650;BME280;46162;57.568;25.814;2023-03-29T03:26:20;100479.03;;;-2.98;100.00
59650;BME280;46162;57.568;25.814;2023-03-29T03:28:50;100471.97;;;-2.98;100.00
59650;BME280;46162;57.568;25.814;2023-03-29T03:31:51;100471.91;;;-2.96;100.00
59650;BME280;46162;57.568;25.814;2023-03-29T03:34:38;100481.47;;;-2.94;100.00
59650;BME280;46162;57.568;25.814;2023-03-29T03:37:08;100477.09;;;-2.95;100.00
59650;BME280;46162;57.568;25.814;2023-03-29T03:39:38;100483.19;;;-2.93;100.00
59650;BME280;46162;57.568;25.814;2023-03-29T03:42:08;100487.66;;;-2.95;100.00
59650;BME280;46162;57.568;25.814;2023-03-29T03:44:40;100495.22;;;-2.87;100.00
59650;BME280;46162;57.568;25.814;2023-03-29T03:47:35;100499.16;;;-2.96;100.00
59650;BME280;46162;57.568;25.814;2023-03-29T03:50:18;100501.03;;;-2.98;100.00
59650;BME280;46162;57.568;25.814;2023-03-29T03:52:48;100502.72;;;-2.97;100.00
59650;BME280;46162;57.568;25.814;2023-03-29T03:55:18;100493.81;;;-2.94;100.00
59650;BME280;46162;57.568;25.814;2023-03-29T03:58:01;100495.69;;;-2.96;100.00
59650;BME280;46162;57.568;25.814;2023-03-29T04:00:30;100493.81;;;-2.94;100.00
59650;BME280;46162;57.568;25.814;2023-03-29T04:03:21;100485.97;;;-2.96;100.00
59650;BME280;46162;57.568;25.814;2023-03-29T04:05:50;100493.75;;;-2.93;100.00
59650;BME280;46162;57.568;25.814;2023-03-29T04:08:24;100504.47;;;-2.96;100.00
59650;BME280;46162;57.568;25.814;2023-03-29T04:11:12;100504.50;;;-2.97;100.00
59650;BME280;46162;57.568;25.814;2023-03-29T04:13:41;100501.81;;;-2.96;100.00
59650;BME280;46162;57.568;25.814;2023-03-29T04:16:39;100508.53;;;-2.89;100.00
59650;BME280;46162;57.568;25.814;2023-03-29T04:19:28;100514.81;;;-2.91;100.00
59650;BME280;46162;57.568;25.814;2023-03-29T04:21:56;100524.44;;;-2.90;100.00
59650;BME280;46162;57.568;25.814;2023-03-29T04:24:26;100518.38;;;-2.92;100.00
59650;BME280;46162;57.568;25.814;2023-03-29T04:27:13;100529.66;;;-2.89;100.00
59650;BME280;46162;57.568;25.814;2023-03-29T04:29:42;100526.09;;;-2.88;100.00
59650;BME280;46162;57.568;25.814;2023-03-29T04:32:19;100530.38;;;-2.85;100.00
59650;BME280;46162;57.568;25.814;2023-03-29T04:34:55;100524.94;;;-2.82;100.00
59650;BME280;46162;57.568;25.814;2023-03-29T04:37:23;100524.03;;;-2.81;100.00
59650;BME280;46162;57.568;25.814;2023-03-29T04:39:54;100538.28;;;-2.85;100.00
59650;BME280;46162;57.568;25.814;2023-03-29T04:42:29;100540.09;;;-2.86;100.00
59650;BME280;46162;57.568;25.814;2023-03-29T04:44:58;100535.50;;;-2.82;100.00
59650;BME280;46162;57.568;25.814;2023-03-29T04:47:45;100526.72;;;-2.83;100.00
59650;BME280;46162;57.568;25.814;2023-03-29T04:50:16;100533.84;;;-2.85;100.00
59650;BME280;46162;57.568;25.814;2023-03-29T04:52:45;100533.81;;;-2.83;100.00
59650;BME280;46162;57.568;25.814;2023-03-29T04:55:15;100533.81;;;-2.83;100.00
59650;BME280;46162;57.568;25.814;2023-03-29T04:57:52;100534.75;;;-2.84;100.00
59650;BME280;46162;57.568;25.814;2023-03-29T05:00:35;100532.94;;;-2.84;100.00
59650;BME280;46162;57.568;25.814;2023-03-29T05:03:06;100528.53;;;-2.83;100.00
59650;BME280;46162;57.568;25.814;2023-03-29T05:05:41;100518.81;;;-2.83;100.00
59650;BME280;46162;57.568;25.814;2023-03-29T05:08:09;100536.09;;;-2.75;100.00
59650;BME280;46162;57.568;25.814;2023-03-29T05:10:58;100536.09;;;-2.75;100.00
59650;BME280;46162;57.568;25.814;2023-03-29T05:13:27;100538.69;;;-2.74;100.00
59650;BME280;46162;57.568;25.814;2023-03-29T05:15:56;100528.81;;;-2.70;100.00
59650;BME280;46162;57.568;25.814;2023-03-29T05:18:26;100530.22;;;-2.63;100.00
59650;BME280;46162;57.568;25.814;2023-03-29T05:20:55;100527.09;;;-2.71;100.00
59650;BME280;46162;57.568;25.814;2023-03-29T05:23:25;100541.38;;;-2.75;100.00
59650;BME280;46162;57.568;25.814;2023-03-29T05:26:07;100542.97;;;-2.71;100.00
59650;BME280;46162;57.568;25.814;2023-03-29T05:28:37;100549.09;;;-2.71;100.00
59650;BME280;46162;57.568;25.814;2023-03-29T05:31:06;100543.09;;;-2.74;100.00
59650;BME280;46162;57.568;25.814;2023-03-29T05:33:37;100546.66;;;-2.75;100.00
59650;BME280;46162;57.568;25.814;2023-03-29T05:36:07;100546.81;;;-2.78;100.00
59650;BME280;46162;57.568;25.814;2023-03-29T05:38:41;100555.53;;;-2.76;100.00
59650;BME280;46162;57.568;25.814;2023-03-29T05:41:12;100555.66;;;-2.79;100.00
59650;BME280;46162;57.568;25.814;2023-03-29T05:44:00;100562.66;;;-2.78;100.00
59650;BME280;46162;57.568;25.814;2023-03-29T05:46:29;100553.88;;;-2.79;100.00
59650;BME280;46162;57.568;25.814;2023-03-29T05:49:01;100560.94;;;-2.79;100.00
59650;BME280;46162;57.568;25.814;2023-03-29T05:51:50;100561.16;;;-2.84;100.00
59650;BME280;46162;57.568;25.814;2023-03-29T05:54:24;100563.50;;;-2.78;100.00
59650;BME280;46162;57.568;25.814;2023-03-29T05:56:54;100562.50;;;-2.75;100.00
59650;BME280;46162;57.568;25.814;2023-03-29T05:59:23;100569.25;;;-2.68;100.00
59650;BME280;46162;57.568;25.814;2023-03-29T06:01:54;100564.25;;;-2.74;100.00
59650;BME280;46162;57.568;25.814;2023-03-29T06:04:22;100567.66;;;-2.72;100.00
59650;BME280;46162;57.568;25.814;2023-03-29T06:07:13;100576.00;;;-2.63;100.00
59650;BME280;46162;57.568;25.814;2023-03-29T06:09:48;100573.97;;;-2.56;100.00
59650;BME280;46162;57.568;25.814;2023-03-29T06:12:19;100581.69;;;-2.51;100.00
59650;BME280;46162;57.568;25.814;2023-03-29T06:14:54;100585.03;;;-2.48;100.00
59650;BME280;46162;57.568;25.814;2023-03-29T06:17:34;100586.22;;;-2.55;100.00
59650;BME280;46162;57.568;25.814;2023-03-29T06:20:02;100582.47;;;-2.49;100.00
59650;BME280;46162;57.568;25.814;2023-03-29T06:22:36;100588.59;;;-2.49;100.00
59650;BME280;46162;57.568;25.814;2023-03-29T06:25:05;100584.13;;;-2.47;100.00
59650;BME280;46162;57.568;25.814;2023-03-29T06:27:36;100588.41;;;-2.44;100.00
59650;BME280;46162;57.568;25.814;2023-03-29T06:30:05;100590.88;;;-2.41;100.00
59650;BME280;46162;57.568;25.814;2023-03-29T06:32:35;100582.59;;;-2.33;100.00
59650;BME280;46162;57.568;25.814;2023-03-29T06:35:08;100583.16;;;-2.27;100.00
59650;BME280;46162;57.568;25.814;2023-03-29T06:37:47;100583.53;;;-2.34;100.00
59650;BME280;46162;57.568;25.814;2023-03-29T06:40:36;100580.75;;;-2.31;100.00
59650;BME280;46162;57.568;25.814;2023-03-29T06:43:07;100579.88;;;-2.32;100.00
59650;BME280;46162;57.568;25.814;2023-03-29T06:46:05;100580.59;;;-2.28;100.00
59650;BME280;46162;57.568;25.814;2023-03-29T06:48:53;100574.03;;;-2.20;100.00
59650;BME280;46162;57.568;25.814;2023-03-29T06:51:28;100577.34;;;-2.16;100.00
59650;BME280;46162;57.568;25.814;2023-03-29T06:53:56;100569.72;;;-2.22;100.00
59650;BME280;46162;57.568;25.814;2023-03-29T06:56:25;100576.09;;;-2.26;100.00
59650;BME280;46162;57.568;25.814;2023-03-29T06:59:06;100570.84;;;-2.09;100.00
59650;BME280;46162;57.568;25.814;2023-03-29T07:01:47;100580.00;;;-2.16;100.00
59650;BME280;46162;57.568;25.814;2023-03-29T07:04:23;100579.38;;;-2.21;100.00
59650;BME280;46162;57.568;25.814;2023-03-29T07:07:14;100587.16;;;-2.18;100.00
59650;BME280;46162;57.568;25.814;2023-03-29T07:09:57;100591.66;;;-2.20;100.00
59650;BME280;46162;57.568;25.814;2023-03-29T07:12:45;100590.25;;;-2.27;100.00
59650;BME280;46162;57.568;25.814;2023-03-29T07:15:16;100597.09;;;-2.23;100.00
59650;BME280;46162;57.568;25.814;2023-03-29T07:18:12;100599.72;;;-2.23;100.00
59650;BME280;46162;57.568;25.814;2023-03-29T07:20:41;100600.91;;;-2.29;100.00
59650;BME280;46162;57.568;25.814;2023-03-29T07:23:10;100600.03;;;-2.29;100.00
59650;BME280;46162;57.568;25.814;2023-03-29T07:25:38;100604.13;;;-2.22;100.00
59650;BME280;46162;57.568;25.814;2023-03-29T07:28:07;100605.75;;;-2.20;100.00
59650;BME280;46162;57.568;25.814;2023-03-29T07:30:37;100611.69;;;-2.14;100.00
59650;BME280;46162;57.568;25.814;2023-03-29T07:33:11;100609.09;;;-2.16;100.00
59650;BME280;46162;57.568;25.814;2023-03-29T07:35:55;100603.97;;;-2.19;100.00
59650;BME280;46162;57.568;25.814;2023-03-29T07:38:25;100607.41;;;-2.17;100.00
59650;BME280;46162;57.568;25.814;2023-03-29T07:41:02;100597.59;;;-2.15;100.00
59650;BME280;46162;57.568;25.814;2023-03-29T07:43:46;100604.53;;;-2.12;100.00
59650;BME280;46162;57.568;25.814;2023-03-29T07:46:21;100617.03;;;-2.16;100.00
59650;BME280;46162;57.568;25.814;2023-03-29T07:48:49;100608.88;;;-2.11;100.00
59650;BME280;46162;57.568;25.814;2023-03-29T07:51:18;100613.22;;;-2.10;100.00
59650;BME280;46162;57.568;25.814;2023-03-29T07:53:50;100617.41;;;-2.05;100.00
59650;BME280;46162;57.568;25.814;2023-03-29T07:56:41;100607.94;;;-2.10;100.00
59650;BME280;46162;57.568;25.814;2023-03-29T07:59:28;100613.53;;;-1.98;100.00
59650;BME280;46162;57.568;25.814;2023-03-29T08:02:09;100616.88;;;-1.94;100.00
59650;BME280;46162;57.568;25.814;2023-03-29T08:04:42;100616.34;;;-1.83;100.00
59650;BME280;46162;57.568;25.814;2023-03-29T08:07:33;100623.66;;;-1.88;100.00
59650;BME280;46162;57.568;25.814;2023-03-29T08:10:14;100629.88;;;-1.89;100.00
59650;BME280;46162;57.568;25.814;2023-03-29T08:13:02;100633.00;;;-1.81;100.00
59650;BME280;46162;57.568;25.814;2023-03-29T08:15:48;100630.34;;;-1.81;100.00
59650;BME280;46162;57.568;25.814;2023-03-29T08:18:45;100631.00;;;-1.76;100.00
59650;BME280;46162;57.568;25.814;2023-03-29T08:21:13;100633.50;;;-1.73;100.00
59650;BME280;46162;57.568;25.814;2023-03-29T08:23:45;100638.50;;;-1.67;100.00
59650;BME280;46162;57.568;25.814;2023-03-29T08:26:25;100628.91;;;-1.69;100.00
59650;BME280;46162;57.568;25.814;2023-03-29T08:28:56;100644.63;;;-1.66;100.00
59650;BME280;46162;57.568;25.814;2023-03-29T08:31:26;100637.25;;;-1.60;100.00
59650;BME280;46162;57.568;25.814;2023-03-29T08:33:56;100633.75;;;-1.60;100.00
59650;BME280;46162;57.568;25.814;2023-03-29T08:36:50;100641.94;;;-1.65;100.00
59650;BME280;46162;57.568;25.814;2023-03-29T08:39:28;100641.78;;;-1.62;100.00
59650;BME280;46162;57.568;25.814;2023-03-29T08:42:22;100644.19;;;-1.57;100.00
59650;BME280;46162;57.568;25.814;2023-03-29T08:45:00;100645.25;;;-1.61;100.00
59650;BME280;46162;57.568;25.814;2023-03-29T08:47:35;100639.97;;;-1.61;100.00
59650;BME280;46162;57.568;25.814;2023-03-29T08:50:13;100645.91;;;-1.56;100.00
59650;BME280;46162;57.568;25.814;2023-03-29T08:52:47;100646.91;;;-1.59;100.00
59650;BME280;46162;57.568;25.814;2023-03-29T08:55:36;100649.66;;;-1.60;100.00
59650;BME280;46162;57.568;25.814;2023-03-29T08:58:31;100652.94;;;-1.55;100.00
59650;BME280;46162;57.568;25.814;2023-03-29T09:01:02;100655.25;;;-1.49;100.00
59650;BME280;46162;57.568;25.814;2023-03-29T09:03:39;100654.41;;;-1.49;100.00
59650;BME280;46162;57.568;25.814;2023-03-29T09:06:19;100660.78;;;-1.54;100.00
59650;BME280;46162;57.568;25.814;2023-03-29T09:08:51;100662.34;;;-1.49;100.00
59650;BME280;46162;57.568;25.814;2023-03-29T09:11:39;100670.50;;;-1.54;100.00
59650;BME280;46162;57.568;25.814;2023-03-29T09:14:21;100675.75;;;-1.53;100.00
59650;BME280;46162;57.568;25.814;2023-03-29T09:16:58;100671.53;;;-1.57;100.00
59650;BME280;46162;57.568;25.814;2023-03-29T09:19:30;100672.78;;;-1.46;100.00
59650;BME280;46162;57.568;25.814;2023-03-29T09:22:05;100671.53;;;-1.39;100.00
59650;BME280;46162;57.568;25.814;2023-03-29T09:24:37;100659.25;;;-1.40;100.00
59650;BME280;46162;57.568;25.814;2023-03-29T09:27:18;100667.88;;;-1.37;100.00
59650;BME280;46162;57.568;25.814;2023-03-29T09:29:58;100664.56;;;-1.23;100.00
59650;BME280;46162;57.568;25.814;2023-03-29T09:32:43;100674.84;;;-1.17;100.00
59650;BME280;46162;57.568;25.814;2023-03-29T09:35:15;100670.47;;;-1.18;100.00
59650;BME280;46162;57.568;25.814;2023-03-29T09:37:51;100659.56;;;-1.12;100.00
59650;BME280;46162;57.568;25.814;2023-03-29T09:40:21;100668.00;;;-1.21;100.00
59650;BME280;46162;57.568;25.814;2023-03-29T09:43:10;100659.72;;;-1.32;100.00
59650;BME280;46162;57.568;25.814;2023-03-29T09:45:39;100657.69;;;-1.27;100.00
59650;BME280;46162;57.568;25.814;2023-03-29T09:48:09;100653.00;;;-1.22;100.00
59650;BME280;46162;57.568;25.814;2023-03-29T09:50:41;100668.69;;;-1.17;100.00
59650;BME280;46162;57.568;25.814;2023-03-29T09:53:12;100660.56;;;-1.14;100.00
59650;BME280;46162;57.568;25.814;2023-03-29T09:55:48;100653.19;;;-1.08;100.00
59650;BME280;46162;57.568;25.814;2023-03-29T09:58:40;100657.06;;;-0.97;100.00
59650;BME280;46162;57.568;25.814;2023-03-29T10:01:10;100661.28;;;-0.93;100.00
59650;BME280;46162;57.568;25.814;2023-03-29T10:03:46;100653.19;;;-1.08;100.00
59650;BME280;46162;57.568;25.814;2023-03-29T10:06:15;100665.03;;;-1.15;100.00
59650;BME280;46162;57.568;25.814;2023-03-29T10:08:51;100660.66;;;-1.16;100.00
59650;BME280;46162;57.568;25.814;2023-03-29T10:11:27;100667.22;;;-1.23;100.00
59650;BME280;46162;57.568;25.814;2023-03-29T10:13:59;100661.81;;;-1.21;100.00
59650;BME280;46162;57.568;25.814;2023-03-29T10:16:28;100663.38;;;-1.17;100.00
59650;BME280;46162;57.568;25.814;2023-03-29T10:18:57;100660.44;;;-1.11;100.00
59650;BME280;46162;57.568;25.814;2023-03-29T10:21:25;100656.91;;;-1.12;100.00
59650;BME280;46162;57.568;25.814;2023-03-29T10:23:57;100663.63;;;-1.04;100.00
59650;BME280;46162;57.568;25.814;2023-03-29T10:26:27;100676.47;;;-1.14;100.00
59650;BME280;46162;57.568;25.814;2023-03-29T10:28:56;100667.28;;;-1.24;100.00
59650;BME280;46162;57.568;25.814;2023-03-29T10:31:27;100672.50;;;-1.23;100.00
59650;BME280;46162;57.568;25.814;2023-03-29T10:33:57;100668.50;;;-1.32;100.00
59650;BME280;46162;57.568;25.814;2023-03-29T10:36:28;100672.81;;;-1.29;100.00
59650;BME280;46162;57.568;25.814;2023-03-29T10:38:59;100663.31;;;-1.33;100.00
59650;BME280;46162;57.568;25.814;2023-03-29T10:41:31;100669.22;;;-1.28;100.00
59650;BME280;46162;57.568;25.814;2023-03-29T10:44:00;100672.66;;;-1.26;100.00
59650;BME280;46162;57.568;25.814;2023-03-29T10:46:29;100667.38;;;-1.26;100.00
59650;BME280;46162;57.568;25.814;2023-03-29T10:48:59;100675.94;;;-1.21;100.00
59650;BME280;46162;57.568;25.814;2023-03-29T10:51:30;100670.47;;;-1.18;100.00
59650;BME280;46162;57.568;25.814;2023-03-29T10:54:02;100674.38;;;-1.08;100.00
59650;BME280;46162;57.568;25.814;2023-03-29T10:56:33;100669.53;;;-1.17;100.00
59650;BME280;46162;57.568;25.814;2023-03-29T10:59:14;100679.50;;;-1.22;100.00
59650;BME280;46162;57.568;25.814;2023-03-29T11:01:46;100671.41;;;-1.19;100.00
59650;BME280;46162;57.568;25.814;2023-03-29T11:04:20;100667.44;;;-1.10;100.00
59650;BME280;46162;57.568;25.814;2023-03-29T11:06:55;100670.72;;;-1.22;100.00
59650;BME280;46162;57.568;25.814;2023-03-29T11:09:32;100671.41;;;-1.19;100.00
59650;BME280;46162;57.568;25.814;2023-03-29T11:12:07;100672.97;;;-1.15;100.00
59650;BME280;46162;57.568;25.814;2023-03-29T11:14:46;100664.34;;;-1.01;100.00
59650;BME280;46162;57.568;25.814;2023-03-29T11:17:20;100668.78;;;-1.01;100.00
59650;BME280;46162;57.568;25.814;2023-03-29T11:19:54;100667.38;;;-1.09;100.00
59650;BME280;46162;57.568;25.814;2023-03-29T11:22:32;100665.34;;;-1.03;100.00
59650;BME280;46162;57.568;25.814;2023-03-29T11:27:51;100671.72;;;-0.90;100.00
59650;BME280;46162;57.568;25.814;2023-03-29T11:30:22;100676.34;;;-0.94;100.00
59650;BME280;46162;57.568;25.814;2023-03-29T11:32:54;100676.84;;;-0.87;100.00
59650;BME280;46162;57.568;25.814;2023-03-29T11:35:29;100677.88;;;-0.90;100.00
59650;BME280;46162;57.568;25.814;2023-03-29T11:38:00;100682.88;;;-0.83;100.00
59650;BME280;46162;57.568;25.814;2023-03-29T11:40:36;100679.72;;;-0.74;100.00
59650;BME280;46162;57.568;25.814;2023-03-29T11:43:10;100673.44;;;-0.72;100.00
59650;BME280;46162;57.568;25.814;2023-03-29T11:45:42;100672.47;;;-0.71;100.00
59650;BME280;46162;57.568;25.814;2023-03-29T11:48:14;100667.75;;;-0.48;100.00
59650;BME280;46162;57.568;25.814;2023-03-29T11:50:46;100678.78;;;-0.56;100.00
59650;BME280;46162;57.568;25.814;2023-03-29T11:53:19;100678.53;;;-0.51;100.00
59650;BME280;46162;57.568;25.814;2023-03-29T11:55:49;100674.63;;;-0.44;100.00
59650;BME280;46162;57.568;25.814;2023-03-29T11:58:21;100663.25;;;-0.30;100.00
59650;BME280;46162;57.568;25.814;2023-03-29T12:00:54;100674.50;;;-0.43;100.00
59650;BME280;46162;57.568;25.814;2023-03-29T12:03:29;100676.66;;;-0.49;100.00
59650;BME280;46162;57.568;25.814;2023-03-29T12:06:00;100684.75;;;-0.52;100.00
59650;BME280;46162;57.568;25.814;2023-03-29T12:08:31;100680.72;;;-0.59;100.00
59650;BME280;46162;57.568;25.814;2023-03-29T12:11:03;100680.72;;;-0.59;100.00
59650;BME280;46162;57.568;25.814;2023-03-29T12:13:36;100682.38;;;-0.57;100.00
59650;BME280;46162;57.568;25.814;2023-03-29T12:16:08;100679.03;;;-0.45;100.00
59650;BME280;46162;57.568;25.814;2023-03-29T12:18:41;100680.22;;;-0.50;100.00
59650;BME280;46162;57.568;25.814;2023-03-29T12:21:12;100688.50;;;-0.39;100.00
59650;BME280;46162;57.568;25.814;2023-03-29T12:23:42;100685.22;;;-0.44;100.00
59650;BME280;46162;57.568;25.814;2023-03-29T12:26:13;100692.22;;;-0.43;100.00
59650;BME280;46162;57.568;25.814;2023-03-29T12:28:55;100687.81;;;-0.60;100.00
59650;BME280;46162;57.568;25.814;2023-03-29T12:31:32;100693.63;;;-0.69;100.00
59650;BME280;46162;57.568;25.814;2023-03-29T12:34:06;100695.25;;;-0.67;100.00
59650;BME280;46162;57.568;25.814;2023-03-29T12:37:02;100690.09;;;-0.70;100.00
59650;BME280;46162;57.568;25.814;2023-03-29T12:40:00;100688.06;;;-0.65;100.00
59650;BME280;46162;57.568;25.814;2023-03-29T12:42:56;100691.00;;;-0.53;100.00
59650;BME280;46162;57.568;25.814;2023-03-29T12:45:47;100685.72;;;-0.53;100.00
59650;BME280;46162;57.568;25.814;2023-03-29T12:48:21;100692.56;;;-0.49;100.00
59650;BME280;46162;57.568;25.814;2023-03-29T12:50:51;100681.25;;;-0.53;100.00
59650;BME280;46162;57.568;25.814;2023-03-29T12:53:21;100688.13;;;-0.49;100.00
59650;BME280;46162;57.568;25.814;2023-03-29T12:55:54;100687.34;;;-0.51;100.00
59650;BME280;46162;57.568;25.814;2023-03-29T12:58:27;100687.34;;;-0.51;100.00
59650;BME280;46162;57.568;25.814;2023-03-29T13:01:07;100693.59;;;-0.52;100.00
59650;BME280;46162;57.568;25.814;2023-03-29T13:03:40;100691.31;;;-0.42;100.00
59650;BME280;46162;57.568;25.814;2023-03-29T13:06:09;100694.88;;;-0.43;100.00
59650;BME280;46162;57.568;25.814;2023-03-29T13:08:39;100703.56;;;-0.39;100.00